Latest Weather Observations for Telfer

IDW60801

Issued at 7:32 am WST Friday 29 April 2016 (issued every 30 minutes, with the page automatically refreshed every 10 minutes)

About weather observations | Map of weather stations | Latest weather observations for WA | Other Formats
Station Details ID: 013030 Name: TELFER AERO Lat: -21.71 Lon: 122.23 Height: 291.9 m
Data from the previous 72 hours. | See also: Recent months at Telfer
Date/Time
WST
Temp
°C
App
Temp
°C
Dew
Point
Rel
Hum
%
Delta-T
°C
Wind Press
QNH
hPa
Press
MSL
hPa
Rain
since 9 am
mm
Dir
 
Spd
km/h
Gust
km/h
Spd
kts
Gust
kts
29/07:30am 24.8 19.2 11.4 43 7.7 SE 32 44 17 24 1014.2 1012.3 0.0
29/07:00am 24.2 20.2 11.9 46 7.1 SE 24 30 13 16 1014.1 1012.2 0.0
29/06:30am 23.1 19.4 11.5 48 6.6 SE 22 26 12 14 1014.0 1012.1 0.0
29/06:00am 23.1 18.9 11.2 47 6.7 SSE 24 30 13 16 1013.7 1011.8 0.0
29/05:30am 23.2 19.7 10.9 46 6.9 SSE 20 28 11 15 1013.2 1011.3 0.0
29/05:00am 23.6 20.1 11.0 45 7.1 SSE 20 26 11 14 1012.7 1010.9 0.0
29/04:30am 23.2 19.9 10.9 46 6.9 SE 19 22 10 12 1012.6 1010.8 0.0
29/04:00am 23.4 20.4 10.8 45 7.1 SE 17 20 9 11 1012.3 1010.5 0.0
29/03:30am 24.3 20.8 10.9 43 7.6 SE 20 26 11 14 1012.3 1010.5 0.0
29/03:00am 24.7 22.2 10.9 42 7.8 SSE 15 20 8 11 1012.5 1010.7 0.0
29/02:30am 24.5 21.8 10.4 41 7.9 SSE 15 19 8 10 1012.5 1010.7 0.0
29/02:00am 23.8 22.1 9.8 41 7.8 SE 9 15 5 8 1012.3 1010.5 0.0
29/01:30am 24.4 22.0 9.9 40 8.1 SE 13 15 7 8 1012.4 1010.6 0.0
29/01:00am 25.2 22.5 10.3 39 8.4 ESE 15 20 8 11 1012.2 1010.4 0.0
29/12:30am 25.6 22.5 10.2 38 8.7 ESE 17 20 9 11 1012.4 1010.6 0.0
29/12:00am 25.5 22.8 8.9 35 9.1 ESE 13 15 7 8 1012.4 1010.6 0.0
 
Date/Time
WST
Temp
°C
App
Temp
°C
Dew
Point
Rel
Hum
%
Delta-T
°C
Wind Press
QNH
hPa
Press
MSL
hPa
Rain
since 9 am
mm
Dir
 
Spd
km/h
Gust
km/h
Spd
kts
Gust
kts
28/11:30pm 26.7 23.9 8.6 32 10.0 ESE 13 17 7 9 1012.6 1010.8 0.0
28/11:00pm 28.2 25.9 9.0 30 10.7 ESE 11 17 6 9 1012.8 1011.0 0.0
28/10:30pm 28.5 25.7 8.7 29 11.0 E 13 19 7 10 1012.5 1010.7 0.0
28/10:00pm 29.4 26.2 8.5 27 11.6 SE 15 20 8 11 1012.0 1010.2 0.0
28/09:30pm 30.2 28.7 8.6 26 12.1 SE 6 17 3 9 1012.0 1010.2 0.0
28/09:00pm 31.2 28.3 8.2 24 12.9 S 13 19 7 10 1011.7 1009.9 0.0
28/08:30pm 30.5 28.7 7.0 23 12.8 SW 6 7 3 4 1011.5 1009.7 0.0
28/08:00pm 31.4 29.4 7.1 22 13.4 SW 7 9 4 5 1011.4 1009.5 0.0
28/07:30pm 30.9 28.4 6.7 22 13.2 W 9 13 5 7 1011.2 1009.3 0.0
28/07:00pm 31.7 29.2 6.7 21 13.7 WNW 9 11 5 6 1010.8 1008.9 0.0
28/06:30pm 32.5 29.6 6.7 20 14.2 W 11 13 6 7 1010.7 1008.8 0.0
28/06:00pm 33.3 30.4 6.6 19 14.7 W 11 15 6 8 1010.4 1008.5 0.0
28/05:30pm 34.2 30.2 6.5 18 15.3 W 17 22 9 12 1010.0 1008.1 0.0
28/05:00pm 34.9 30.2 6.2 17 15.9 W 20 28 11 15 1009.7 1007.8 0.0
28/04:30pm 35.8 31.3 6.1 16 16.4 W 19 26 10 14 1009.4 1007.6 0.0
28/04:00pm 36.1 31.1 6.3 16 16.6 WSW 22 32 12 17 1009.2 1007.4 0.0
28/03:30pm 36.3 31.3 6.5 16 16.6 NW 22 33 12 18 1009.0 1007.2 0.0
28/03:00pm 36.0 31.3 6.2 16 16.6 WNW 20 33 11 18 1009.0 1007.2 0.0
28/02:30pm 35.7 31.2 6.0 16 16.4 NW 19 28 10 15 1009.1 1007.3 0.0
28/02:00pm 35.9 30.3 7.0 17 16.2 NW 26 37 14 20 1009.2 1007.4 0.0
28/01:30pm 36.1 31.5 6.3 16 16.6 WNW 20 33 11 18 1009.4 1007.6 0.0
28/01:00pm 36.3 31.1 5.5 15 17.0 NW 22 41 12 22 1009.9 1008.0 0.0
28/12:30pm 35.8 29.6 6.1 16 16.4 WNW 28 37 15 20 1010.4 1008.5 0.0
28/12:00pm 35.7 31.0 7.7 18 15.9 WNW 22 37 12 20 1010.8 1008.9 0.0
28/11:30am 35.6 31.6 8.4 19 15.6 W 19 28 10 15 1011.2 1009.3 0.0
28/11:00am 33.6 30.2 7.6 20 14.6 WSW 15 19 8 10 1011.7 1009.9 0.0
28/10:30am 32.7 31.0 8.2 22 13.8 WSW 7 13 4 7 1012.1 1010.3 0.0
28/10:00am 30.7 28.6 8.4 25 12.5 WSW 9 15 5 8 1012.4 1010.6 0.0
28/09:30am 29.8 28.0 9.3 28 11.6 WSW 9 13 5 7 1012.6 1010.8 0.0
28/09:00am 28.5 26.3 9.2 30 10.8 WSW 11 15 6 8 1012.7 1010.9 0.0
28/08:30am 27.7 25.8 9.0 31 10.4 W 9 13 5 7 1012.8 1011.0 0.0
28/08:00am 27.2 24.9 9.1 32 10.1 WNW 11 17 6 9 1012.5 1010.7 0.0
28/07:30am 25.3 22.8 8.3 34 9.2 WNW 11 13 6 7 1012.2 1010.4 0.0
28/07:00am 23.2 20.3 8.1 38 8.1 NW 13 17 7 9 1011.9 1010.1 0.0
28/06:30am 22.3 19.8 8.1 40 7.6 NW 11 15 6 8 1011.6 1009.8 0.0
28/06:00am 22.8 20.6 7.8 38 8.0 NW 9 13 5 7 1011.3 1009.4 0.0
28/05:30am 24.3 21.3 7.9 35 8.8 WNW 13 17 7 9 1010.9 1009.0 0.0
28/05:00am 24.2 20.8 7.8 35 8.8 WNW 15 19 8 10 1010.7 1008.8 0.0
28/04:30am 24.0 21.4 7.6 35 8.7 W 11 15 6 8 1010.8 1008.9 0.0
28/04:00am 23.8 21.9 7.4 35 8.7 WNW 7 11 4 6 1010.8 1008.9 0.0
28/03:30am 24.2 21.4 6.9 33 9.1 NW 11 13 6 7 1010.8 1008.9 0.0
28/03:00am 24.7 22.0 7.4 33 9.2 NNW 11 15 6 8 1010.8 1008.9 0.0
28/02:30am 26.3 23.6 7.4 30 10.2 WSW 11 15 6 8 1010.9 1009.0 0.0
28/02:00am 27.1 23.0 8.0 30 10.4 W 19 24 10 13 1010.9 1009.0 0.0
28/01:30am 27.0 23.8 8.4 31 10.2 W 15 20 8 11 1010.9 1009.0 0.0
28/01:00am 26.8 23.1 7.8 30 10.3 W 17 20 9 11 1011.1 1009.2 0.0
28/12:30am 26.5 23.8 5.5 26 10.9 WNW 9 11 5 6 1011.1 1009.2 0.0
28/12:00am 26.7 24.3 5.1 25 11.2 WNW 7 13 4 7 1011.3 1009.4 0.0
 
Date/Time
WST
Temp
°C
App
Temp
°C
Dew
Point
Rel
Hum
%
Delta-T
°C
Wind Press
QNH
hPa
Press
MSL
hPa
Rain
since 9 am
mm
Dir
 
Spd
km/h
Gust
km/h
Spd
kts
Gust
kts
27/11:30pm 26.8 24.0 5.1 25 11.2 NNE 9 20 5 11 1011.2 1009.3 0.0
27/11:00pm 25.4 22.6 5.1 27 10.4 SE 9 13 5 7 1011.2 1009.3 0.0
27/10:30pm 27.5 26.4 5.1 24 11.7 CALM 0 0 0 0 1011.4 1009.5 0.0
27/10:00pm 27.3 25.0 5.0 24 11.6 NW 6 7 3 4 1011.6 1009.8 0.0
27/09:30pm 27.4 26.0 5.6 25 11.4 SE 2 7 1 4 1011.8 1010.0 0.0
27/09:00pm 28.8 27.0 5.6 23 12.3 SSE 4 6 2 3 1011.9 1010.1 0.0
27/08:30pm 27.7 24.9 5.3 24 11.7 SE 9 9 5 5 1011.8 1010.0 0.0
27/08:00pm 28.9 26.1 5.1 22 12.5 SE 9 13 5 7 1011.8 1010.0 0.0
27/07:30pm 30.1 28.9 4.7 20 13.3 CALM 0 0 0 0 1011.5 1009.7 0.0
27/07:00pm 31.7 30.6 5.3 19 14.1 CALM 0 0 0 0 1011.0 1009.1 0.0
27/06:30pm 32.5 30.1 4.3 17 14.9 WNW 6 6 3 3 1010.8 1008.9 0.0
27/06:00pm 33.0 30.3 3.9 16 15.3 NW 7 9 4 5 1010.6 1008.7 0.0
27/05:30pm 33.9 31.2 3.7 15 15.9 W 7 9 4 5 1010.4 1008.5 0.0
27/05:00pm 34.6 32.0 4.2 15 16.2 WSW 7 11 4 6 1010.1 1008.2 0.0
27/04:30pm 34.9 32.3 4.4 15 16.4 SW 7 13 4 7 1010.1 1008.2 0.0
27/04:00pm 35.5 32.1 3.9 14 16.9 WSW 11 19 6 10 1009.9 1008.0 0.0
27/03:30pm 35.8 32.1 4.2 14 17.0 W 13 20 7 11 1009.9 1008.0 0.0
27/03:00pm 35.0 32.6 4.5 15 16.4 W 6 20 3 11 1009.8 1007.9 0.0
27/02:30pm 35.2 32.3 4.7 15 16.5 SSE 9 15 5 8 1009.9 1008.0 0.0
27/02:00pm 35.6 32.4 5.0 15 16.6 W 11 20 6 11 1010.3 1008.4 0.0
27/01:30pm 34.6 31.6 4.2 15 16.2 SW 9 15 5 8 1010.6 1008.7 0.0
27/01:00pm 34.9 32.5 4.4 15 16.4 WSW 6 13 3 7 1010.9 1009.0 0.0
27/12:30pm 35.6 33.0 5.9 16 16.4 WSW 9 17 5 9 1011.7 1009.9 0.0
27/12:00pm 34.4 32.1 5.8 17 15.7 W 7 13 4 7 1012.1 1010.3 0.0
27/11:30am 33.3 30.6 7.3 20 14.5 ESE 11 22 6 12 1012.5 1010.7 0.0
27/11:00am 33.4 29.9 7.4 20 14.5 SE 15 22 8 12 1013.0 1011.2 0.0
27/10:30am 32.3 28.2 7.9 22 13.7 SE 19 32 10 17 1013.6 1011.7 0.0
27/10:00am 32.1 27.7 9.0 24 13.1 SE 22 30 12 16 1014.0 1012.1 0.0
27/09:30am 31.2 26.5 9.4 26 12.4 SE 24 30 13 16 1014.2 1012.3 0.0
27/09:00am 29.7 24.2 9.3 28 11.5 SE 28 33 15 18 1014.1 1012.2 0.0
27/08:30am 29.0 23.3 9.7 30 10.9 SE 30 35 16 19 1014.1 1012.2 0.0
27/08:00am 27.9 22.6 9.7 32 10.3 SSE 28 37 15 20 1013.9 1012.0 0.0
27/07:30am 26.7 22.0 9.1 33 9.8 SSE 24 33 13 18 1013.7 1011.8 0.0
27/07:00am 25.2 20.7 8.7 35 9.0 SE 22 30 12 16 1013.4 1011.5 0.0
27/06:30am 23.3 19.6 7.8 37 8.3 SE 17 22 9 12 1013.3 1011.4 0.0
27/06:00am 23.8 19.7 7.8 36 8.5 SE 19 22 10 12 1012.9 1011.1 0.0
27/05:30am 24.7 20.4 7.8 34 9.1 SSE 20 28 11 15 1012.7 1010.9 0.0
27/05:00am 25.2 19.6 7.3 32 9.6 SSE 26 33 14 18 1012.6 1010.8 0.0
27/04:30am 25.1 20.7 7.3 32 9.5 SSE 20 28 11 15 1012.4 1010.6 0.0
27/04:00am 25.1 22.4 5.8 29 10.0 S 9 17 5 9 1012.5 1010.7 0.0
27/03:30am 24.9 21.6 2.4 23 11.0 SW 9 13 5 7 1012.5 1010.7 0.0
27/03:00am 25.2 21.3 1.3 21 11.5 SW 11 17 6 9 1012.2 1010.4 0.0
27/02:30am 25.4 19.8 1.5 21 11.5 WSW 20 26 11 14 1012.4 1010.6 0.0
27/02:00am 25.1 20.1 1.3 21 11.4 WNW 17 20 9 11 1012.4 1010.6 0.0
27/01:30am 25.6 20.9 1.0 20 11.8 NW 15 19 8 10 1012.3 1010.5 0.0
27/01:00am 25.6 22.1 1.0 20 11.8 NNW 9 11 5 6 1011.9 1010.1 0.0
27/12:30am 25.4 21.9 1.5 21 11.5 NNW 9 11 5 6 1012.1 1010.3 0.0
27/12:00am 25.6 22.2 1.7 21 11.6 N 9 13 5 7 1012.3 1010.5 0.0
 
Date/Time
WST
Temp
°C
App
Temp
°C
Dew
Point
Rel
Hum
%
Delta-T
°C
Wind Press
QNH
hPa
Press
MSL
hPa
Rain
since 9 am
mm
Dir
 
Spd
km/h
Gust
km/h
Spd
kts
Gust
kts
26/11:30pm 25.2 21.8 2.0 22 11.3 N 9 11 5 6 1012.4 1010.6 0.0
26/11:00pm 26.2 23.1 1.5 20 12.0 NNE 7 11 4 6 1012.5 1010.7 0.0
26/10:30pm 26.9 25.1 1.3 19 12.4 CALM 0 6 0 3 1012.7 1010.9 0.0
26/10:00pm 27.0 23.9 1.4 19 12.4 N 7 9 4 5 1013.0 1011.2 0.0
26/09:30pm 27.8 26.0 1.3 18 12.9 CALM 0 0 0 0 1013.0 1011.2 0.0
26/09:00pm 27.2 24.3 1.6 19 12.5 ENE 6 7 3 4 1013.3 1011.4 0.0
26/08:30pm 28.5 25.0 1.1 17 13.4 SSE 9 11 5 6 1013.3 1011.4 0.0
26/08:00pm 28.2 24.8 1.7 18 13.1 SE 9 13 5 7 1013.3 1011.4 0.0
26/07:30pm 28.8 25.6 0.5 16 13.7 ESE 7 11 4 6 1013.0 1011.2 0.0
26/07:00pm 31.6 29.8 0.9 14 15.3 CALM 0 0 0 0 1012.7 1010.9 0.0
26/06:30pm 32.6 29.9 0.6 13 15.9 SW 4 7 2 4 1012.3 1010.5 0.0
26/06:00pm 33.0 31.0 -0.2 12 16.4 CALM 0 0 0 0 1012.1 1010.3 0.0
26/05:30pm 34.3 31.5 -0.4 11 17.2 NW 4 7 2 4 1011.9 1010.1 0.0
26/05:00pm 35.2 32.1 0.3 11 17.6 SSE 6 9 3 5 1011.8 1010.0 0.0
26/04:30pm 35.3 32.2 0.4 11 17.6 S 6 11 3 6 1011.7 1009.9 0.0
26/04:00pm 35.7 32.5 -0.6 10 18.1 SSW 6 13 3 7 1011.6 1009.8 0.0
26/03:30pm 35.8 31.3 -0.5 10 18.1 SW 13 17 7 9 1011.7 1009.9 0.0
26/03:00pm 36.2 31.7 -0.2 10 18.3 WNW 13 20 7 11 1011.6 1009.8 0.0
26/02:30pm 36.0 32.6 -0.4 10 18.2 NE 7 13 4 7 1011.7 1009.9 0.0
26/02:00pm 36.6 32.0 -1.4 9 18.8 W 13 20 7 11 1011.7 1009.9 0.0
26/01:30pm 35.5 32.1 -0.8 10 18.0 N 7 13 4 7 1012.0 1010.2 0.0
26/01:00pm 35.7 31.5 -0.6 10 18.1 NE 11 22 6 12 1012.4 1010.6 0.0
26/12:30pm 35.2 30.6 -1.0 10 17.8 NNW 13 20 7 11 1012.9 1011.1 0.0
26/12:00pm 35.5 30.9 -0.8 10 18.0 NW 13 20 7 11 1013.5 1011.6 0.0
26/11:30am 34.9 29.9 -1.2 10 17.7 N 15 26 8 14 1014.0 1012.1 0.0
26/11:00am 34.0 28.5 -1.9 10 17.3 N 17 24 9 13 1014.3 1012.4 0.0
26/10:30am 33.5 28.1 -1.0 11 16.8 NNE 17 26 9 14 1014.7 1012.9 0.0
26/10:00am 33.6 28.3 -0.9 11 16.8 N 17 28 9 15 1015.2 1013.4 0.0
26/09:30am 32.4 26.7 -0.6 12 16.1 NNE 19 28 10 15 1015.3 1013.5 0.0
26/09:00am 30.6 26.0 -0.9 13 15.1 NNE 13 19 7 10 1015.3 1013.5 0.0
26/08:30am 28.4 23.8 -0.7 15 13.8 NNE 13 19 7 10 1015.4 1013.6 0.0
26/08:00am 27.1 22.6 0.0 17 12.8 NE 13 19 7 10 1015.3 1013.5 0.0

Other Formats:

Comma delimited format used in spreadsheet applications
http://www.bom.gov.au/fwo/IDW60801/IDW60801.94319.axf

JavaScript Object Notation format (JSON) in row-major order
http://www.bom.gov.au/fwo/IDW60801/IDW60801.94319.json